createdAt,value
2023-03-15T00:00:12.498Z,99453.81
2023-03-15T00:00:55.301Z,99439.28
2023-03-15T00:01:37.013Z,99473.38
2023-03-15T00:02:18.611Z,99469.41
2023-03-15T00:03:04.040Z,99471.34
2023-03-15T00:03:46.333Z,99447.91
2023-03-15T00:04:28.851Z,99472.78
2023-03-15T00:05:13.506Z,99479.16
2023-03-15T00:05:55.233Z,99467.59
2023-03-15T00:06:36.885Z,99479.59
2023-03-15T00:07:18.536Z,99480.19
2023-03-15T00:08:04.336Z,99472.22
2023-03-15T00:08:47.655Z,99482.16
2023-03-15T00:09:29.449Z,99448.34
2023-03-15T00:10:11.404Z,99485.59
2023-03-15T00:10:53.039Z,99485.06
2023-03-15T00:11:34.821Z,99476.72
2023-03-15T00:12:16.444Z,99495.19
2023-03-15T00:12:58.040Z,99362.47
2023-03-15T00:13:39.788Z,99496.28
2023-03-15T00:14:22.179Z,99505.81
2023-03-15T00:15:04.104Z,99504.31
2023-03-15T00:15:50.475Z,99500.31
2023-03-15T00:16:33.037Z,99501.59
2023-03-15T00:17:14.942Z,99489.81
2023-03-15T00:17:56.511Z,99505.47
2023-03-15T00:18:38.161Z,99501.06
2023-03-15T00:19:19.765Z,99425.94
2023-03-15T00:20:01.713Z,99490.25
2023-03-15T00:20:43.882Z,99485.06
2023-03-15T00:21:25.579Z,99504.16
2023-03-15T00:22:07.581Z,99495.81
2023-03-15T00:22:49.255Z,99492.38
2023-03-15T00:23:31.684Z,99509.69
2023-03-15T00:24:13.352Z,99508.03
2023-03-15T00:24:55.026Z,99507.53
2023-03-15T00:25:37.330Z,99504.50
2023-03-15T00:26:19.038Z,99444.72
2023-03-15T00:27:00.685Z,99517.19
2023-03-15T00:27:42.361Z,99436.50
2023-03-15T00:28:23.991Z,99527.81
2023-03-15T00:29:07.051Z,99521.88
2023-03-15T00:29:48.651Z,99511.69
2023-03-15T00:30:30.277Z,99519.25
2023-03-15T00:31:23.858Z,99522.84
2023-03-15T00:32:05.599Z,99496.56
2023-03-15T00:32:47.619Z,99516.53
2023-03-15T00:33:29.350Z,99494.97
2023-03-15T00:34:13.823Z,99503.72
2023-03-15T00:34:55.807Z,99504.16
2023-03-15T00:35:42.634Z,99478.06
2023-03-15T00:36:24.879Z,99519.69
2023-03-15T00:37:06.602Z,99500.34
2023-03-15T00:37:48.201Z,99505.66
2023-03-15T00:38:30.503Z,99531.28
2023-03-15T00:39:12.092Z,99527.84
2023-03-15T00:39:55.695Z,99529.94
2023-03-15T00:40:38.163Z,99538.59
2023-03-15T00:41:21.744Z,99516.31
2023-03-15T00:42:03.873Z,99532.97
2023-03-15T00:42:49.974Z,99535.44
2023-03-15T00:43:31.767Z,99505.31
2023-03-15T00:44:13.409Z,99538.88
2023-03-15T00:44:55.839Z,99530.22
2023-03-15T00:45:37.967Z,99497.50
2023-03-15T00:46:20.354Z,99533.78
2023-03-15T00:47:02.031Z,99500.25
2023-03-15T00:47:43.738Z,99508.19
2023-03-15T00:48:25.332Z,99507.97
2023-03-15T00:49:06.917Z,99541.28
2023-03-15T00:49:48.614Z,99535.19
2023-03-15T00:50:30.258Z,99537.00
2023-03-15T00:51:21.387Z,99540.59
2023-03-15T00:52:03.208Z,99531.34
2023-03-15T00:52:45.079Z,99524.91
2023-03-15T00:53:27.655Z,99536.44
2023-03-15T00:54:13.642Z,99540.16
2023-03-15T00:54:55.843Z,99518.72
2023-03-15T00:55:37.690Z,99544.84
2023-03-15T00:56:25.689Z,99535.38
2023-03-15T00:57:07.402Z,99349.91
2023-03-15T00:57:49.842Z,99507.59
2023-03-15T00:58:31.609Z,99540.75
2023-03-15T00:59:13.328Z,99553.03
2023-03-15T00:59:55.053Z,99543.38
2023-03-15T01:00:38.262Z,99543.38
2023-03-15T01:01:29.145Z,99537.16
2023-03-15T01:02:11.413Z,99542.09
2023-03-15T01:02:54.720Z,99541.13
2023-03-15T01:03:37.115Z,99457.78
2023-03-15T01:04:18.751Z,99536.63
2023-03-15T01:05:01.729Z,99542.09
2023-03-15T01:05:43.390Z,99528.91
2023-03-15T01:06:28.130Z,99517.38
2023-03-15T01:07:09.897Z,99528.09
2023-03-15T01:07:53.143Z,99511.84
2023-03-15T01:08:34.785Z,99552.44
2023-03-15T01:09:16.414Z,99546.38
2023-03-15T01:09:58.154Z,99528.50
2023-03-15T01:10:39.751Z,99553.53
2023-03-15T01:11:25.297Z,99552.19
2023-03-15T01:12:07.345Z,99555.78
2023-03-15T01:12:48.961Z,99561.69
2023-03-15T01:13:30.585Z,99557.56
2023-03-15T01:14:12.335Z,99557.28
2023-03-15T01:14:53.976Z,99563.06
2023-03-15T01:15:37.332Z,99558.13
2023-03-15T01:16:19.206Z,99570.25
2023-03-15T01:17:00.881Z,99552.63
2023-03-15T01:17:43.378Z,99547.44
2023-03-15T01:18:25.447Z,99567.75
2023-03-15T01:19:07.147Z,99562.00
2023-03-15T01:19:49.028Z,99575.91
2023-03-15T01:20:30.638Z,99550.44
2023-03-15T01:21:14.738Z,99575.78
2023-03-15T01:21:56.472Z,99546.44
2023-03-15T01:22:38.069Z,99575.50
2023-03-15T01:23:19.781Z,99566.97
2023-03-15T01:24:02.469Z,99560.91
2023-03-15T01:24:44.330Z,99557.47
2023-03-15T01:25:26.508Z,99558.84
2023-03-15T01:26:12.521Z,99568.75
2023-03-15T01:26:54.103Z,99573.16
2023-03-15T01:27:35.831Z,99570.69
2023-03-15T01:28:17.734Z,99573.28
2023-03-15T01:28:59.350Z,99484.00
2023-03-15T01:29:41.223Z,99562.44
2023-03-15T01:30:23.819Z,99574.81
2023-03-15T01:31:05.758Z,99578.25
2023-03-15T01:31:48.689Z,99584.03
2023-03-15T01:32:30.421Z,99426.38
2023-03-15T01:33:12.049Z,99575.78
2023-03-15T01:33:54.296Z,99583.34
2023-03-15T01:34:36.752Z,99578.94
2023-03-15T01:35:18.439Z,99570.97
2023-03-15T01:36:05.818Z,99587.75
2023-03-15T01:36:52.285Z,99543.44
2023-03-15T01:37:34.459Z,99583.34
2023-03-15T01:38:16.262Z,99581.69
2023-03-15T01:38:58.653Z,99563.41
2023-03-15T01:39:48.749Z,99588.88
2023-03-15T01:40:30.388Z,99592.44
2023-03-15T01:41:13.937Z,99596.72
2023-03-15T01:41:57.308Z,99586.25
2023-03-15T01:42:53.165Z,99594.09
2023-03-15T01:43:35.459Z,99585.84
2023-03-15T01:44:19.393Z,99589.00
2023-03-15T01:45:02.301Z,99585.56
2023-03-15T01:46:01.735Z,99592.88
2023-03-15T01:46:46.384Z,99574.84
2023-03-15T01:47:33.271Z,99593.28
2023-03-15T01:48:16.637Z,99599.63
2023-03-15T01:49:04.145Z,99595.78
2023-03-15T01:49:58.722Z,99589.84
2023-03-15T01:50:40.397Z,99594.81
2023-03-15T01:51:46.738Z,99601.00
2023-03-15T01:52:34.535Z,99596.06
2023-03-15T01:53:17.927Z,99590.97
2023-03-15T01:54:09.258Z,99603.34
2023-03-15T01:55:29.489Z,99598.41
2023-03-15T01:56:18.023Z,99597.59
2023-03-15T01:57:12.768Z,99592.63
2023-03-15T01:57:58.838Z,99584.34
2023-03-15T01:58:45.490Z,99593.72
2023-03-15T01:59:32.041Z,99593.84
2023-03-15T02:00:19.866Z,99585.31
2023-03-15T02:01:09.925Z,99593.59
2023-03-15T02:01:56.206Z,99583.25
2023-03-15T02:02:46.360Z,99596.34
2023-03-15T02:03:46.513Z,99576.75
2023-03-15T02:04:34.058Z,99594.13
2023-03-15T02:05:25.470Z,99589.56
2023-03-15T02:06:09.715Z,99544.25
2023-03-15T02:07:03.760Z,99595.38
2023-03-15T02:07:54.582Z,99595.63
2023-03-15T02:08:43.630Z,99597.28
2023-03-15T02:09:36.009Z,99597.28
2023-03-15T02:10:25.319Z,99595.75
2023-03-15T02:11:09.070Z,99591.63
2023-03-15T02:11:51.179Z,99589.56
2023-03-15T02:12:40.603Z,99581.28
2023-03-15T02:13:24.265Z,99574.28
2023-03-15T02:14:09.653Z,99590.66
2023-03-15T02:14:54.187Z,99595.63
2023-03-15T02:15:37.965Z,99600.88
2023-03-15T02:16:23.616Z,99594.94
2023-03-15T02:17:12.207Z,99385.34
2023-03-15T02:17:54.007Z,99595.75
2023-03-15T02:18:37.419Z,99597.94
2023-03-15T02:19:41.833Z,99609.09
2023-03-15T02:20:44.632Z,99601.38
2023-03-15T02:21:54.032Z,99608.41
2023-03-15T02:22:56.623Z,99580.47
2023-03-15T02:23:38.507Z,99582.94
2023-03-15T02:24:32.022Z,99605.78
2023-03-15T02:25:30.399Z,99601.53
2023-03-15T02:26:21.167Z,99602.47
2023-03-15T02:27:03.564Z,99589.53
2023-03-15T02:27:45.807Z,99607.88
2023-03-15T02:28:30.541Z,99607.31
2023-03-15T02:29:12.839Z,99597.81
2023-03-15T02:29:55.555Z,99603.03
2023-03-15T02:30:37.721Z,99613.50
2023-03-15T02:31:20.492Z,99621.34
2023-03-15T02:32:06.435Z,99566.78
2023-03-15T02:32:48.624Z,99613.06
2023-03-15T02:33:35.962Z,99619.00
2023-03-15T02:34:17.801Z,99621.72
2023-03-15T02:34:59.452Z,99580.00
2023-03-15T02:35:41.135Z,99467.66
2023-03-15T02:36:28.059Z,99612.41
2023-03-15T02:37:09.810Z,99634.16
2023-03-15T02:37:51.452Z,99637.59
2023-03-15T02:38:33.067Z,99625.63
2023-03-15T02:39:17.381Z,99605.19
2023-03-15T02:39:59.984Z,99642.00
2023-03-15T02:40:41.664Z,99642.00
2023-03-15T02:41:34.673Z,99619.50
2023-03-15T02:42:17.521Z,99649.66
2023-03-15T02:43:03.131Z,99635.75
2023-03-15T02:43:47.149Z,99650.09
2023-03-15T02:44:33.695Z,99653.41
2023-03-15T02:45:15.563Z,99623.88
2023-03-15T02:45:57.850Z,99657.09
2023-03-15T02:46:40.436Z,99630.38
2023-03-15T02:47:29.102Z,99669.34
2023-03-15T02:48:12.941Z,99666.84
2023-03-15T02:48:55.038Z,99670.28
2023-03-15T02:49:43.912Z,99648.22
2023-03-15T02:50:25.978Z,99673.88
2023-03-15T02:51:07.616Z,99664.75
2023-03-15T02:51:50.423Z,99674.69
2023-03-15T02:52:31.984Z,99653.06
2023-03-15T02:53:13.587Z,99676.75
2023-03-15T02:53:55.425Z,99658.53
2023-03-15T02:54:37.098Z,99674.94
2023-03-15T02:55:19.675Z,99678.53
2023-03-15T02:56:01.698Z,99674.53
2023-03-15T02:56:44.317Z,99656.59
2023-03-15T02:57:25.986Z,99677.97
2023-03-15T02:58:09.929Z,99669.00
2023-03-15T02:58:51.650Z,99683.22
2023-03-15T02:59:33.292Z,99626.09
2023-03-15T03:00:15.758Z,99684.28
2023-03-15T03:00:58.474Z,99669.78
2023-03-15T03:01:40.306Z,99677.91
2023-03-15T03:02:22.072Z,99666.75
2023-03-15T03:03:03.827Z,99620.59
2023-03-15T03:03:47.448Z,99680.28
2023-03-15T03:04:29.055Z,99669.53
2023-03-15T03:05:12.856Z,99685.25
2023-03-15T03:05:54.538Z,99683.34
2023-03-15T03:06:36.335Z,99683.22
2023-03-15T03:07:19.127Z,99685.00
2023-03-15T03:08:04.423Z,99669.53
2023-03-15T03:08:47.290Z,99660.41
2023-03-15T03:09:31.795Z,99702.72
2023-03-15T03:10:15.917Z,99699.28
2023-03-15T03:11:04.767Z,99692.38
2023-03-15T03:11:46.549Z,99695.38
2023-03-15T03:12:28.124Z,99683.81
2023-03-15T03:13:09.774Z,99690.13
2023-03-15T03:13:53.645Z,99649.19
2023-03-15T03:14:35.354Z,99708.31
2023-03-15T03:15:18.326Z,99689.16
2023-03-15T03:15:59.979Z,99702.00
2023-03-15T03:16:44.628Z,99707.38
2023-03-15T03:17:27.389Z,99686.56
2023-03-15T03:18:09.172Z,99703.22
2023-03-15T03:18:51.296Z,99708.91
2023-03-15T03:19:32.890Z,99706.16
2023-03-15T03:20:15.180Z,99710.56
2023-03-15T03:21:00.663Z,99647.66
2023-03-15T03:21:43.372Z,99699.78
2023-03-15T03:22:26.125Z,99724.69
2023-03-15T03:23:07.741Z,99703.75
2023-03-15T03:23:49.563Z,99700.31
2023-03-15T03:24:31.292Z,99715.91
2023-03-15T03:25:13.144Z,99712.22
2023-03-15T03:25:56.467Z,99718.28
2023-03-15T03:26:38.414Z,99707.25
2023-03-15T03:27:21.341Z,99718.28
2023-03-15T03:28:04.353Z,99690.66
2023-03-15T03:28:47.896Z,99712.19
2023-03-15T03:29:30.633Z,99649.28
2023-03-15T03:30:15.268Z,99690.22
2023-03-15T03:31:04.989Z,99701.78
2023-03-15T03:31:47.203Z,99732.53
2023-03-15T03:32:29.058Z,99732.53
2023-03-15T03:33:10.728Z,99642.34
2023-03-15T03:33:52.829Z,99725.41
2023-03-15T03:34:35.043Z,99729.69
2023-03-15T03:35:17.023Z,99733.00
2023-03-15T03:36:02.337Z,99742.50
2023-03-15T03:36:44.835Z,99734.66
2023-03-15T03:37:30.857Z,99733.25
2023-03-15T03:38:16.290Z,99737.41
2023-03-15T03:39:03.524Z,99739.19
2023-03-15T03:39:45.424Z,99735.72
2023-03-15T03:40:27.030Z,99729.47
2023-03-15T03:41:10.701Z,99740.13
2023-03-15T03:41:53.165Z,99694.84
2023-03-15T03:42:35.883Z,99729.75
2023-03-15T03:43:18.548Z,99717.19
2023-03-15T03:44:00.720Z,99748.81
2023-03-15T03:44:42.345Z,99664.38
2023-03-15T03:45:24.409Z,99746.31
2023-03-15T03:46:09.438Z,99723.97
2023-03-15T03:46:55.343Z,99710.03
2023-03-15T03:47:36.934Z,99747.28
2023-03-15T03:48:18.597Z,99748.22
2023-03-15T03:49:00.241Z,99726.00
2023-03-15T03:49:42.840Z,99750.13
2023-03-15T03:50:24.450Z,99745.16
2023-03-15T03:51:06.204Z,99689.28
2023-03-15T03:51:47.899Z,99740.00
2023-03-15T03:52:29.590Z,99735.63
2023-03-15T03:53:19.840Z,99725.13
2023-03-15T03:54:02.160Z,99760.25
2023-03-15T03:54:43.946Z,99746.78
2023-03-15T03:55:25.776Z,99756.66
2023-03-15T03:56:09.002Z,99757.09
2023-03-15T03:56:51.788Z,99740.09
2023-03-15T03:57:33.944Z,99755.31
2023-03-15T03:58:15.945Z,99758.88
2023-03-15T03:59:03.214Z,99753.78
2023-03-15T04:00:04.566Z,99744.13
2023-03-15T04:00:56.508Z,99738.44
2023-03-15T04:01:40.247Z,99744.47
2023-03-15T04:02:22.419Z,99760.09
2023-03-15T04:03:12.827Z,99759.13
2023-03-15T04:03:58.537Z,99723.53
2023-03-15T04:04:43.305Z,99690.44
2023-03-15T04:05:31.198Z,99735.81
2023-03-15T04:06:12.940Z,99766.06
2023-03-15T04:06:58.181Z,99772.81
2023-03-15T04:07:44.795Z,99742.50
2023-03-15T04:08:28.634Z,99773.53
2023-03-15T04:09:12.413Z,99765.81
2023-03-15T04:09:57.184Z,99764.88
2023-03-15T04:10:38.976Z,99766.53
2023-03-15T04:11:20.665Z,99767.34
2023-03-15T04:12:10.163Z,99769.13
2023-03-15T04:12:55.735Z,99779.59
2023-03-15T04:13:37.371Z,99766.66
2023-03-15T04:14:19.713Z,99774.63
2023-03-15T04:15:04.423Z,99783.41
2023-03-15T04:15:48.657Z,99759.00
2023-03-15T04:16:30.872Z,99779.84
2023-03-15T04:17:18.355Z,99782.31
2023-03-15T04:17:59.959Z,99774.63
2023-03-15T04:18:47.606Z,99769.09
2023-03-15T04:19:29.990Z,99777.94
2023-03-15T04:20:12.909Z,99740.91
2023-03-15T04:20:58.167Z,99779.84
2023-03-15T04:21:46.972Z,99766.72
2023-03-15T04:22:35.492Z,99776.53
2023-03-15T04:23:42.382Z,99782.97
2023-03-15T04:24:39.718Z,99723.84
2023-03-15T04:25:39.364Z,99743.72
2023-03-15T04:26:38.170Z,99726.34
2023-03-15T04:27:35.274Z,99780.88
2023-03-15T04:28:38.053Z,99781.81
2023-03-15T04:29:48.556Z,99788.16
2023-03-15T04:30:37.711Z,99785.53
2023-03-15T04:31:43.119Z,99781.97
2023-03-15T04:33:03.526Z,99746.75
2023-03-15T04:34:14.314Z,99784.00
2023-03-15T04:35:09.764Z,99787.94
2023-03-15T04:36:02.830Z,99777.06
2023-03-15T04:37:03.318Z,99787.88
2023-03-15T04:38:04.015Z,99786.47
2023-03-15T04:39:05.360Z,99785.91
2023-03-15T04:40:07.935Z,99770.31
2023-03-15T04:41:01.582Z,99709.38
2023-03-15T04:42:01.031Z,99680.94
2023-03-15T04:42:48.484Z,99779.53
2023-03-15T04:43:30.002Z,99763.91
2023-03-15T04:44:40.868Z,99783.91
2023-03-15T04:45:31.913Z,99770.41
2023-03-15T04:46:36.726Z,99793.88
2023-03-15T04:47:31.664Z,99786.16
2023-03-15T04:48:37.204Z,99752.84
2023-03-15T04:49:36.088Z,99778.31
2023-03-15T04:50:52.941Z,99748.59
2023-03-15T04:51:53.073Z,99790.44
2023-03-15T04:52:53.013Z,99780.22
2023-03-15T04:53:53.201Z,99734.75
2023-03-15T04:55:13.320Z,99774.34
2023-03-15T04:56:11.984Z,99721.03
2023-03-15T04:57:00.607Z,99713.59
2023-03-15T04:58:01.113Z,99778.44
2023-03-15T04:59:10.661Z,99782.72
2023-03-15T05:00:15.688Z,99786.41
2023-03-15T05:01:16.334Z,99787.47
2023-03-15T05:02:05.143Z,99789.66
2023-03-15T05:02:56.701Z,99715.34
2023-03-15T05:03:59.180Z,99787.75
2023-03-15T05:05:01.568Z,99788.41
2023-03-15T05:05:58.791Z,99777.78
2023-03-15T05:07:03.782Z,99789.13
2023-03-15T05:07:56.825Z,99763.13
2023-03-15T05:08:57.262Z,99788.22
2023-03-15T05:09:48.073Z,99732.66
2023-03-15T05:10:33.309Z,99775.84
2023-03-15T05:11:20.970Z,99788.16
2023-03-15T05:12:25.244Z,99753.22
2023-03-15T05:13:25.424Z,99793.13
2023-03-15T05:14:27.310Z,99779.50
2023-03-15T05:15:22.800Z,99725.25
2023-03-15T05:16:29.894Z,99797.44
2023-03-15T05:17:34.145Z,99787.69
2023-03-15T05:18:38.826Z,99778.69
2023-03-15T05:19:34.693Z,99801.31
2023-03-15T05:20:35.350Z,99804.75
2023-03-15T05:21:26.127Z,99769.94
2023-03-15T05:22:36.686Z,99769.06
2023-03-15T05:23:38.773Z,99805.31
2023-03-15T05:24:38.828Z,99803.78
2023-03-15T05:25:39.581Z,99784.38
2023-03-15T05:26:41.377Z,99800.03
2023-03-15T05:27:49.332Z,99795.28
2023-03-15T05:28:56.897Z,99801.09
2023-03-15T05:29:41.091Z,99805.47
2023-03-15T05:30:55.025Z,99778.94
2023-03-15T05:31:55.410Z,99812.84
2023-03-15T05:32:56.015Z,99783.34
2023-03-15T05:33:56.488Z,99815.34
2023-03-15T05:34:54.957Z,99813.09
2023-03-15T05:35:59.104Z,99805.88
2023-03-15T05:36:52.458Z,99814.75
2023-03-15T05:37:49.158Z,99805.97
2023-03-15T05:38:31.224Z,99799.19
2023-03-15T05:39:42.492Z,99807.97
2023-03-15T05:40:26.962Z,99807.03
2023-03-15T05:41:18.077Z,99781.69
2023-03-15T05:42:25.054Z,99802.88
2023-03-15T05:43:21.866Z,99819.91
2023-03-15T05:44:10.001Z,99813.72
2023-03-15T05:45:10.449Z,99812.41
2023-03-15T05:46:02.586Z,99820.41
2023-03-15T05:47:02.891Z,99813.16
2023-03-15T05:48:02.456Z,99829.50
2023-03-15T05:49:00.117Z,99821.41
2023-03-15T05:49:53.433Z,99830.03
2023-03-15T05:50:48.173Z,99782.66
2023-03-15T05:51:45.871Z,99824.16
2023-03-15T05:52:27.639Z,99826.63
2023-03-15T05:53:19.476Z,99758.84
2023-03-15T05:54:14.093Z,99828.16
2023-03-15T05:55:22.174Z,99827.09
2023-03-15T05:56:22.335Z,99829.31
2023-03-15T05:57:25.154Z,99822.16
2023-03-15T05:58:20.197Z,99779.13
2023-03-15T05:59:16.195Z,99829.47
2023-03-15T06:00:18.770Z,99834.34
2023-03-15T06:01:04.444Z,99825.16
2023-03-15T06:02:06.345Z,99819.69
2023-03-15T06:02:59.935Z,99826.88
2023-03-15T06:04:00.267Z,99827.44
2023-03-15T06:04:45.535Z,99768.25
2023-03-15T06:05:31.278Z,99819.56
2023-03-15T06:06:17.732Z,99798.84
2023-03-15T06:06:59.398Z,99818.56
2023-03-15T06:07:41.629Z,99822.28
2023-03-15T06:08:23.495Z,99821.03
2023-03-15T06:09:05.694Z,99812.16
2023-03-15T06:09:47.473Z,99840.16
2023-03-15T06:10:29.595Z,99818.78
2023-03-15T06:11:13.810Z,99822.09
2023-03-15T06:11:56.019Z,99832.72
2023-03-15T06:12:37.945Z,99801.16
2023-03-15T06:13:19.731Z,99821.31
2023-03-15T06:14:02.087Z,99838.13
2023-03-15T06:14:52.210Z,99755.63
2023-03-15T06:15:33.854Z,99831.81
2023-03-15T06:16:15.926Z,99836.22
2023-03-15T06:17:01.645Z,99802.41
2023-03-15T06:17:44.791Z,99831.09
2023-03-15T06:18:26.437Z,99832.75
2023-03-15T06:19:08.143Z,99818.25
2023-03-15T06:19:49.887Z,99779.25
2023-03-15T06:20:32.002Z,99798.44
2023-03-15T06:21:19.587Z,99807.84
2023-03-15T06:22:01.939Z,99829.63
2023-03-15T06:22:50.373Z,99838.91
2023-03-15T06:23:52.044Z,99822.94
2023-03-15T06:24:33.998Z,99827.00
2023-03-15T06:25:15.855Z,99839.66
2023-03-15T06:25:57.499Z,99828.09
2023-03-15T06:26:39.871Z,99808.22
2023-03-15T06:27:22.245Z,99838.59
2023-03-15T06:28:05.172Z,99838.63
2023-03-15T06:28:47.060Z,99839.88
2023-03-15T06:29:29.489Z,99840.88
2023-03-15T06:30:13.932Z,99846.69
2023-03-15T06:30:56.598Z,99844.38
2023-03-15T06:31:44.839Z,99778.84
2023-03-15T06:32:27.260Z,99840.94
2023-03-15T06:33:08.902Z,99835.97
2023-03-15T06:33:51.006Z,99823.16
2023-03-15T06:34:32.774Z,99831.16
2023-03-15T06:35:14.565Z,99826.47
2023-03-15T06:35:56.701Z,99739.16
2023-03-15T06:36:38.687Z,99843.97
2023-03-15T06:37:34.190Z,99809.94
2023-03-15T06:38:16.669Z,99824.94
2023-03-15T06:38:58.300Z,99834.47
2023-03-15T06:39:40.444Z,99825.06
2023-03-15T06:40:22.100Z,99832.78
2023-03-15T06:41:05.143Z,99818.88
2023-03-15T06:41:49.026Z,99806.75
2023-03-15T06:42:36.144Z,99841.75
2023-03-15T06:43:19.695Z,99824.22
2023-03-15T06:44:01.904Z,99832.91
2023-03-15T06:44:43.780Z,99843.38
2023-03-15T06:45:25.519Z,99818.59
2023-03-15T06:46:08.327Z,99841.75
2023-03-15T06:46:50.077Z,99842.56
2023-03-15T06:47:32.764Z,99829.19
2023-03-15T06:48:15.061Z,99834.03
2023-03-15T06:48:57.082Z,99814.19
2023-03-15T06:49:40.303Z,99827.97
2023-03-15T06:50:21.967Z,99713.56
2023-03-15T06:51:05.874Z,99811.00
2023-03-15T06:51:47.585Z,99821.50
2023-03-15T06:52:29.263Z,99829.19
2023-03-15T06:53:11.045Z,99837.75
2023-03-15T06:53:52.696Z,99837.19
2023-03-15T06:54:35.356Z,99818.19
2023-03-15T06:55:18.504Z,99787.69
2023-03-15T06:56:00.807Z,99838.69
2023-03-15T06:56:42.497Z,99840.94
2023-03-15T06:57:24.035Z,99832.34
2023-03-15T06:58:05.632Z,99833.03
2023-03-15T06:58:47.206Z,99830.69
2023-03-15T06:59:29.018Z,99812.91
2023-03-15T07:00:11.725Z,99836.34
2023-03-15T07:00:53.339Z,99846.16
2023-03-15T07:01:35.201Z,99838.16
2023-03-15T07:02:18.709Z,99826.03
2023-03-15T07:03:00.561Z,99839.25
2023-03-15T07:03:42.510Z,99832.59
2023-03-15T07:04:24.255Z,99803.09
2023-03-15T07:05:06.508Z,99831.78
2023-03-15T07:05:52.334Z,99835.88
2023-03-15T07:06:34.085Z,99843.91
2023-03-15T07:07:16.414Z,99838.88
2023-03-15T07:07:58.313Z,99835.56
2023-03-15T07:08:39.992Z,99840.34
2023-03-15T07:09:21.601Z,99839.06
2023-03-15T07:10:03.480Z,99830.03
2023-03-15T07:10:45.269Z,99851.63
2023-03-15T07:11:26.943Z,99841.91
2023-03-15T07:12:11.724Z,99847.25
2023-03-15T07:12:53.382Z,99838.78
2023-03-15T07:13:34.994Z,99831.41
2023-03-15T07:14:16.603Z,99852.31
2023-03-15T07:14:58.266Z,99825.19
2023-03-15T07:15:40.429Z,99848.63
2023-03-15T07:16:22.227Z,99854.41
2023-03-15T07:17:04.616Z,99863.66
2023-03-15T07:17:46.308Z,99860.06
2023-03-15T07:18:27.953Z,99867.97
2023-03-15T07:19:09.540Z,99863.03
2023-03-15T07:19:56.656Z,99780.41
2023-03-15T07:20:38.847Z,99865.22
2023-03-15T07:21:20.436Z,99871.28
2023-03-15T07:22:02.096Z,99867.56
2023-03-15T07:22:45.548Z,99867.69
2023-03-15T07:23:27.437Z,99850.72
2023-03-15T07:24:09.090Z,99865.13
2023-03-15T07:24:51.186Z,99811.84
2023-03-15T07:25:37.642Z,99840.72
2023-03-15T07:26:23.879Z,99871.84
2023-03-15T07:27:05.661Z,99861.25
2023-03-15T07:27:47.243Z,99865.44
2023-03-15T07:28:29.034Z,99865.53
2023-03-15T07:29:10.793Z,99859.13
2023-03-15T07:29:52.439Z,99869.88
2023-03-15T07:30:34.000Z,99862.16
2023-03-15T07:31:15.679Z,99870.88
2023-03-15T07:31:57.399Z,99874.53
2023-03-15T07:32:39.231Z,99851.72
2023-03-15T07:33:24.166Z,99890.31
2023-03-15T07:34:06.042Z,99883.09
2023-03-15T07:34:47.649Z,99891.97
2023-03-15T07:35:29.308Z,99888.50
2023-03-15T07:36:11.058Z,99825.72
2023-03-15T07:36:52.714Z,99876.81
2023-03-15T07:37:34.551Z,99889.47
2023-03-15T07:38:16.651Z,99855.69
2023-03-15T07:38:58.194Z,99884.59
2023-03-15T07:39:39.864Z,99881.25
2023-03-15T07:40:21.498Z,99880.41
2023-03-15T07:41:05.838Z,99640.06
2023-03-15T07:41:47.483Z,99888.31
2023-03-15T07:42:38.355Z,99869.19
2023-03-15T07:43:20.377Z,99903.19
2023-03-15T07:44:05.624Z,99901.28
2023-03-15T07:44:47.372Z,99898.59
2023-03-15T07:45:29.062Z,99829.88
2023-03-15T07:46:10.923Z,99886.69
2023-03-15T07:46:52.742Z,99872.47
2023-03-15T07:47:34.967Z,99887.13
2023-03-15T07:48:17.080Z,99886.88
2023-03-15T07:48:58.686Z,99823.91
2023-03-15T07:49:40.526Z,99891.84
2023-03-15T07:50:22.486Z,99886.59
2023-03-15T07:51:04.570Z,99886.06
2023-03-15T07:51:46.322Z,99889.75
2023-03-15T07:52:28.028Z,99865.50
2023-03-15T07:53:09.658Z,99889.97
2023-03-15T07:53:51.392Z,99872.75
2023-03-15T07:54:34.312Z,99890.19
2023-03-15T07:55:15.981Z,99880.38
2023-03-15T07:55:57.672Z,99883.91
2023-03-15T07:56:39.349Z,99846.94
2023-03-15T07:57:21.002Z,99895.72
2023-03-15T07:58:03.504Z,99891.97
2023-03-15T07:58:45.138Z,99882.88
2023-03-15T07:59:27.216Z,99893.91
2023-03-15T08:00:12.026Z,99893.31
2023-03-15T08:00:57.636Z,99899.16
2023-03-15T08:01:39.378Z,99900.97
2023-03-15T08:02:21.225Z,99900.22
2023-03-15T08:03:03.029Z,99901.72
2023-03-15T08:03:44.944Z,99908.09
2023-03-15T08:04:26.633Z,99890.72
2023-03-15T08:05:08.555Z,99907.72
2023-03-15T08:05:51.076Z,99900.28
2023-03-15T08:06:32.709Z,99864.56
2023-03-15T08:07:14.351Z,99767.72
2023-03-15T08:07:56.581Z,99877.50
2023-03-15T08:08:38.212Z,99897.63
2023-03-15T08:09:19.853Z,99889.63
2023-03-15T08:10:01.743Z,99883.06
2023-03-15T08:10:44.854Z,99871.38
2023-03-15T08:11:26.457Z,99855.75
2023-03-15T08:12:08.362Z,99861.91
2023-03-15T08:12:49.973Z,99865.47
2023-03-15T08:13:31.613Z,99890.47
2023-03-15T08:14:13.420Z,99889.88
2023-03-15T08:14:55.075Z,99882.66
2023-03-15T08:15:36.932Z,99884.69
2023-03-15T08:16:18.566Z,99896.38
2023-03-15T08:17:00.401Z,99888.63
2023-03-15T08:17:42.864Z,99897.13
2023-03-15T08:18:24.497Z,99887.41
2023-03-15T08:19:06.518Z,99886.75
2023-03-15T08:19:48.369Z,99906.09
2023-03-15T08:20:30.187Z,99904.47
2023-03-15T08:21:12.074Z,99901.97
2023-03-15T08:21:53.944Z,99884.78
2023-03-15T08:22:38.120Z,99910.84
2023-03-15T08:23:20.131Z,99912.28
2023-03-15T08:24:02.131Z,99920.78
2023-03-15T08:24:45.440Z,99921.84
2023-03-15T08:25:27.489Z,99921.88
2023-03-15T08:26:09.190Z,99912.56
2023-03-15T08:26:51.334Z,99926.84
2023-03-15T08:27:33.015Z,99914.91
2023-03-15T08:28:14.715Z,99902.47
2023-03-15T08:28:56.381Z,99923.75
2023-03-15T08:29:38.068Z,99924.47
2023-03-15T08:30:20.881Z,99919.81
2023-03-15T08:31:07.519Z,99915.06
2023-03-15T08:31:49.289Z,99915.53
2023-03-15T08:32:30.954Z,99911.81
2023-03-15T08:33:12.678Z,99912.44
2023-03-15T08:33:54.304Z,99892.19
2023-03-15T08:34:36.012Z,99914.34
2023-03-15T08:35:19.208Z,99907.16
2023-03-15T08:36:01.285Z,99906.69
2023-03-15T08:36:43.069Z,99851.03
2023-03-15T08:37:25.020Z,99913.69
2023-03-15T08:38:06.750Z,99906.63
2023-03-15T08:38:48.373Z,99895.28
2023-03-15T08:39:30.099Z,99930.44
2023-03-15T08:40:12.297Z,99911.69
2023-03-15T08:40:57.837Z,99904.44
2023-03-15T08:41:40.895Z,99922.06
2023-03-15T08:42:22.881Z,99935.91
2023-03-15T08:43:04.638Z,99919.81
2023-03-15T08:43:46.326Z,99921.75
2023-03-15T08:44:27.991Z,99928.88
2023-03-15T08:45:10.408Z,99911.91
2023-03-15T08:46:00.832Z,99927.53
2023-03-15T08:46:45.859Z,99910.06
2023-03-15T08:47:29.882Z,99934.09
2023-03-15T08:48:37.740Z,99911.59
2023-03-15T08:49:19.590Z,99930.16
2023-03-15T08:50:06.998Z,99934.47
2023-03-15T08:50:48.727Z,99931.72
2023-03-15T08:51:31.041Z,99915.34
2023-03-15T08:52:12.886Z,99943.28
2023-03-15T08:52:54.673Z,99929.25
2023-03-15T08:53:36.312Z,99953.88
2023-03-15T08:54:18.000Z,99945.31
2023-03-15T08:54:59.716Z,99935.75
2023-03-15T08:55:41.338Z,99910.06
2023-03-15T08:56:23.054Z,99933.19
2023-03-15T08:57:04.734Z,99932.38
2023-03-15T08:57:46.595Z,99909.63
2023-03-15T08:58:28.647Z,99945.97